sensor_id;sensor_type;location;lat;lon;timestamp;pressure;altitude;pressure_sealevel;temperature;humidity
55675;BME280;41562;44.330;23.802;2023-04-21T00:01:32;99746.69;;;11.86;100.00
55675;BME280;41562;44.330;23.802;2023-04-21T00:03:59;99740.97;;;11.74;100.00
55675;BME280;41562;44.330;23.802;2023-04-21T00:06:26;99743.19;;;11.66;100.00
55675;BME280;41562;44.330;23.802;2023-04-21T00:08:53;99741.97;;;11.59;100.00
55675;BME280;41562;44.330;23.802;2023-04-21T00:11:21;99745.00;;;11.52;100.00
55675;BME280;41562;44.330;23.802;2023-04-21T00:13:48;99730.44;;;11.58;100.00
55675;BME280;41562;44.330;23.802;2023-04-21T00:16:15;99733.81;;;11.50;100.00
55675;BME280;41562;44.330;23.802;2023-04-21T00:18:42;99741.16;;;11.40;100.00
55675;BME280;41562;44.330;23.802;2023-04-21T00:21:09;99736.47;;;11.50;100.00
55675;BME280;41562;44.330;23.802;2023-04-21T00:23:37;99737.84;;;11.66;100.00
55675;BME280;41562;44.330;23.802;2023-04-21T00:26:04;99747.81;;;11.42;100.00
55675;BME280;41562;44.330;23.802;2023-04-21T00:28:31;99734.50;;;11.37;100.00
55675;BME280;41562;44.330;23.802;2023-04-21T00:30:58;99737.44;;;11.17;100.00
55675;BME280;41562;44.330;23.802;2023-04-21T00:33:26;99741.81;;;11.08;100.00
55675;BME280;41562;44.330;23.802;2023-04-21T00:35:53;99741.78;;;10.89;100.00
55675;BME280;41562;44.330;23.802;2023-04-21T00:38:20;99728.84;;;10.96;100.00
55675;BME280;41562;44.330;23.802;2023-04-21T00:40:49;99732.91;;;10.94;100.00
55675;BME280;41562;44.330;23.802;2023-04-21T00:43:16;99734.00;;;10.93;100.00
55675;BME280;41562;44.330;23.802;2023-04-21T00:45:46;99723.31;;;10.93;100.00
55675;BME280;41562;44.330;23.802;2023-04-21T00:48:14;99720.31;;;10.70;100.00
55675;BME280;41562;44.330;23.802;2023-04-21T00:50:42;99722.38;;;10.78;100.00
55675;BME280;41562;44.330;23.802;2023-04-21T00:53:11;99719.44;;;10.80;100.00
55675;BME280;41562;44.330;23.802;2023-04-21T00:55:38;99706.75;;;10.38;100.00
55675;BME280;41562;44.330;23.802;2023-04-21T00:58:06;99705.53;;;10.54;100.00
55675;BME280;41562;44.330;23.802;2023-04-21T01:00:33;99710.09;;;10.77;100.00
55675;BME280;41562;44.330;23.802;2023-04-21T01:03:00;99712.34;;;10.89;100.00
55675;BME280;41562;44.330;23.802;2023-04-21T01:05:28;99708.19;;;11.02;100.00
55675;BME280;41562;44.330;23.802;2023-04-21T01:07:55;99701.41;;;10.67;100.00
55675;BME280;41562;44.330;23.802;2023-04-21T01:10:22;99704.28;;;10.46;100.00
55675;BME280;41562;44.330;23.802;2023-04-21T01:12:50;99704.41;;;10.60;100.00
55675;BME280;41562;44.330;23.802;2023-04-21T01:15:17;99708.78;;;10.75;100.00
55675;BME280;41562;44.330;23.802;2023-04-21T01:17:44;99707.41;;;10.77;100.00
55675;BME280;41562;44.330;23.802;2023-04-21T01:20:13;99713.28;;;10.79;100.00
55675;BME280;41562;44.330;23.802;2023-04-21T01:22:41;99712.97;;;10.57;100.00
55675;BME280;41562;44.330;23.802;2023-04-21T01:25:08;99708.88;;;10.41;100.00
55675;BME280;41562;44.330;23.802;2023-04-21T01:27:36;99707.16;;;10.55;100.00
55675;BME280;41562;44.330;23.802;2023-04-21T01:30:04;99703.47;;;10.46;100.00
55675;BME280;41562;44.330;23.802;2023-04-21T01:32:33;99709.22;;;10.58;100.00
55675;BME280;41562;44.330;23.802;2023-04-21T01:35:00;99711.91;;;10.58;100.00
55675;BME280;41562;44.330;23.802;2023-04-21T01:37:30;99711.63;;;10.60;100.00
55675;BME280;41562;44.330;23.802;2023-04-21T01:40:00;99705.13;;;10.42;100.00
55675;BME280;41562;44.330;23.802;2023-04-21T01:42:28;99714.38;;;10.49;100.00
55675;BME280;41562;44.330;23.802;2023-04-21T01:44:56;99713.69;;;10.39;100.00
55675;BME280;41562;44.330;23.802;2023-04-21T01:47:24;99726.34;;;10.57;100.00
55675;BME280;41562;44.330;23.802;2023-04-21T01:49:51;99721.63;;;10.49;100.00
55675;BME280;41562;44.330;23.802;2023-04-21T01:52:19;99715.09;;;10.31;100.00
55675;BME280;41562;44.330;23.802;2023-04-21T01:54:47;99722.09;;;10.27;100.00
55675;BME280;41562;44.330;23.802;2023-04-21T01:57:15;99718.56;;;10.37;100.00
55675;BME280;41562;44.330;23.802;2023-04-21T01:59:43;99719.63;;;10.36;100.00
55675;BME280;41562;44.330;23.802;2023-04-21T02:02:10;99717.56;;;10.28;100.00
55675;BME280;41562;44.330;23.802;2023-04-21T02:04:37;99710.63;;;10.27;100.00
55675;BME280;41562;44.330;23.802;2023-04-21T02:07:05;99713.91;;;10.14;100.00
55675;BME280;41562;44.330;23.802;2023-04-21T02:09:32;99706.59;;;9.95;100.00
55675;BME280;41562;44.330;23.802;2023-04-21T02:11:59;99700.16;;;9.96;100.00
55675;BME280;41562;44.330;23.802;2023-04-21T02:14:27;99697.44;;;10.01;100.00
55675;BME280;41562;44.330;23.802;2023-04-21T02:16:54;99698.41;;;10.16;100.00
55675;BME280;41562;44.330;23.802;2023-04-21T02:19:21;99699.00;;;10.07;100.00
55675;BME280;41562;44.330;23.802;2023-04-21T02:21:48;99709.16;;;10.05;100.00
55675;BME280;41562;44.330;23.802;2023-04-21T02:24:15;99704.72;;;9.96;100.00
55675;BME280;41562;44.330;23.802;2023-04-21T02:26:43;99709.47;;;10.04;100.00
55675;BME280;41562;44.330;23.802;2023-04-21T02:29:10;99714.13;;;9.88;100.00
55675;BME280;41562;44.330;23.802;2023-04-21T02:31:37;99719.06;;;9.71;100.00
55675;BME280;41562;44.330;23.802;2023-04-21T02:34:23;99707.16;;;9.92;100.00
55675;BME280;41562;44.330;23.802;2023-04-21T02:36:50;99704.81;;;9.81;100.00
55675;BME280;41562;44.330;23.802;2023-04-21T02:39:18;99700.53;;;9.85;100.00
55675;BME280;41562;44.330;23.802;2023-04-21T02:41:45;99700.94;;;9.63;100.00
55675;BME280;41562;44.330;23.802;2023-04-21T02:44:13;99712.19;;;9.60;100.00
55675;BME280;41562;44.330;23.802;2023-04-21T02:46:40;99705.00;;;9.55;100.00
55675;BME280;41562;44.330;23.802;2023-04-21T02:49:08;99702.56;;;9.64;100.00
55675;BME280;41562;44.330;23.802;2023-04-21T02:51:36;99706.81;;;9.65;100.00
55675;BME280;41562;44.330;23.802;2023-04-21T02:54:04;99720.97;;;9.65;100.00
55675;BME280;41562;44.330;23.802;2023-04-21T02:56:31;99722.31;;;9.63;100.00
55675;BME280;41562;44.330;23.802;2023-04-21T02:58:58;99720.81;;;9.47;100.00
55675;BME280;41562;44.330;23.802;2023-04-21T03:01:26;99720.28;;;9.45;100.00
55675;BME280;41562;44.330;23.802;2023-04-21T03:03:53;99730.28;;;9.68;100.00
55675;BME280;41562;44.330;23.802;2023-04-21T03:06:21;99725.22;;;9.66;100.00
55675;BME280;41562;44.330;23.802;2023-04-21T03:08:48;99721.22;;;9.64;100.00
55675;BME280;41562;44.330;23.802;2023-04-21T03:11:15;99714.59;;;9.56;100.00
55675;BME280;41562;44.330;23.802;2023-04-21T03:13:42;99713.06;;;12.12;100.00
55675;BME280;41562;44.330;23.802;2023-04-21T03:16:10;99716.91;;;12.66;95.29
55675;BME280;41562;44.330;23.802;2023-04-21T03:18:37;99707.81;;;13.44;88.98
55675;BME280;41562;44.330;23.802;2023-04-21T03:21:05;99718.25;;;13.59;86.90
55675;BME280;41562;44.330;23.802;2023-04-21T03:23:32;99723.88;;;13.93;84.87
55675;BME280;41562;44.330;23.802;2023-04-21T03:26:05;99721.28;;;14.10;88.44
55675;BME280;41562;44.330;23.802;2023-04-21T03:28:33;99726.91;;;14.23;85.21
55675;BME280;41562;44.330;23.802;2023-04-21T03:31:00;99732.09;;;14.19;84.30
55675;BME280;41562;44.330;23.802;2023-04-21T03:33:28;99737.69;;;13.78;81.98
55675;BME280;41562;44.330;23.802;2023-04-21T03:35:55;99746.81;;;12.73;85.64
55675;BME280;41562;44.330;23.802;2023-04-21T03:38:22;99749.97;;;11.21;94.54
55675;BME280;41562;44.330;23.802;2023-04-21T03:40:50;99746.06;;;10.66;100.00
55675;BME280;41562;44.330;23.802;2023-04-21T03:43:17;99748.38;;;10.15;100.00
55675;BME280;41562;44.330;23.802;2023-04-21T03:45:58;99747.22;;;9.92;100.00
55675;BME280;41562;44.330;23.802;2023-04-21T03:48:27;99758.44;;;9.89;100.00
55675;BME280;41562;44.330;23.802;2023-04-21T03:50:54;99751.59;;;9.78;100.00
55675;BME280;41562;44.330;23.802;2023-04-21T03:53:21;99750.56;;;9.69;100.00
55675;BME280;41562;44.330;23.802;2023-04-21T03:55:50;99751.16;;;9.61;100.00
55675;BME280;41562;44.330;23.802;2023-04-21T03:58:18;99753.47;;;9.28;100.00
55675;BME280;41562;44.330;23.802;2023-04-21T04:00:45;99754.59;;;9.12;100.00
55675;BME280;41562;44.330;23.802;2023-04-21T04:03:13;99757.75;;;9.19;100.00
55675;BME280;41562;44.330;23.802;2023-04-21T04:05:41;99756.63;;;9.31;100.00
55675;BME280;41562;44.330;23.802;2023-04-21T04:08:09;99752.88;;;9.37;100.00
55675;BME280;41562;44.330;23.802;2023-04-21T04:10:36;99756.59;;;9.41;100.00
55675;BME280;41562;44.330;23.802;2023-04-21T04:13:05;99765.59;;;9.60;100.00
55675;BME280;41562;44.330;23.802;2023-04-21T04:15:32;99768.53;;;9.58;100.00
55675;BME280;41562;44.330;23.802;2023-04-21T04:18:00;99764.00;;;9.49;100.00
55675;BME280;41562;44.330;23.802;2023-04-21T04:20:28;99766.91;;;9.57;100.00
55675;BME280;41562;44.330;23.802;2023-04-21T04:22:55;99775.69;;;9.63;100.00
55675;BME280;41562;44.330;23.802;2023-04-21T04:25:22;99779.94;;;9.69;100.00
55675;BME280;41562;44.330;23.802;2023-04-21T04:27:50;99779.94;;;9.69;100.00
55675;BME280;41562;44.330;23.802;2023-04-21T04:30:17;99778.50;;;9.82;100.00
55675;BME280;41562;44.330;23.802;2023-04-21T04:32:44;99787.16;;;10.07;100.00
55675;BME280;41562;44.330;23.802;2023-04-21T04:35:11;99780.69;;;9.80;100.00
55675;BME280;41562;44.330;23.802;2023-04-21T04:37:38;99789.16;;;9.87;100.00
55675;BME280;41562;44.330;23.802;2023-04-21T04:40:06;99781.09;;;9.97;100.00
55675;BME280;41562;44.330;23.802;2023-04-21T04:42:34;99787.19;;;10.02;100.00
55675;BME280;41562;44.330;23.802;2023-04-21T04:45:01;99789.88;;;10.02;100.00
55675;BME280;41562;44.330;23.802;2023-04-21T04:47:29;99796.06;;;9.93;100.00
55675;BME280;41562;44.330;23.802;2023-04-21T04:49:56;99803.00;;;9.94;100.00
55675;BME280;41562;44.330;23.802;2023-04-21T04:52:23;99807.00;;;9.96;100.00
55675;BME280;41562;44.330;23.802;2023-04-21T04:54:51;99808.06;;;9.95;100.00
55675;BME280;41562;44.330;23.802;2023-04-21T04:57:18;99813.19;;;9.87;100.00
55675;BME280;41562;44.330;23.802;2023-04-21T04:59:45;99814.16;;;10.01;100.00
55675;BME280;41562;44.330;23.802;2023-04-21T05:02:12;99815.00;;;9.96;100.00
55675;BME280;41562;44.330;23.802;2023-04-21T05:04:39;99826.75;;;9.95;100.00
55675;BME280;41562;44.330;23.802;2023-04-21T05:07:07;99817.91;;;10.00;100.00
55675;BME280;41562;44.330;23.802;2023-04-21T05:09:34;99818.69;;;10.05;100.00
55675;BME280;41562;44.330;23.802;2023-04-21T05:12:01;99813.13;;;9.97;100.00
55675;BME280;41562;44.330;23.802;2023-04-21T05:14:28;99824.84;;;10.01;100.00
55675;BME280;41562;44.330;23.802;2023-04-21T05:16:55;99839.06;;;9.96;100.00
55675;BME280;41562;44.330;23.802;2023-04-21T05:19:23;99826.94;;;10.09;100.00
55675;BME280;41562;44.330;23.802;2023-04-21T05:21:50;99825.13;;;10.04;100.00
55675;BME280;41562;44.330;23.802;2023-04-21T05:24:18;99817.59;;;10.17;100.00
55675;BME280;41562;44.330;23.802;2023-04-21T05:26:46;99825.44;;;10.37;100.00
55675;BME280;41562;44.330;23.802;2023-04-21T05:29:13;99828.47;;;10.25;100.00
55675;BME280;41562;44.330;23.802;2023-04-21T05:31:41;99834.25;;;10.37;100.00
55675;BME280;41562;44.330;23.802;2023-04-21T05:34:08;99832.34;;;10.43;100.00
55675;BME280;41562;44.330;23.802;2023-04-21T05:36:35;99831.72;;;10.51;100.00
55675;BME280;41562;44.330;23.802;2023-04-21T05:39:02;99827.13;;;10.57;100.00
55675;BME280;41562;44.330;23.802;2023-04-21T05:41:30;99830.06;;;10.60;100.00
55675;BME280;41562;44.330;23.802;2023-04-21T05:43:57;99838.13;;;10.84;100.00
55675;BME280;41562;44.330;23.802;2023-04-21T05:46:24;99829.25;;;10.88;100.00
55675;BME280;41562;44.330;23.802;2023-04-21T05:48:52;99837.56;;;10.87;100.00
55675;BME280;41562;44.330;23.802;2023-04-21T05:51:19;99838.88;;;10.89;100.00
55675;BME280;41562;44.330;23.802;2023-04-21T05:53:46;99841.53;;;10.89;100.00
55675;BME280;41562;44.330;23.802;2023-04-21T05:56:13;99832.91;;;10.98;100.00
55675;BME280;41562;44.330;23.802;2023-04-21T05:58:40;99832.31;;;11.06;100.00
55675;BME280;41562;44.330;23.802;2023-04-21T06:01:07;99840.00;;;11.12;100.00
55675;BME280;41562;44.330;23.802;2023-04-21T06:03:35;99842.91;;;11.58;100.00
55675;BME280;41562;44.330;23.802;2023-04-21T06:06:03;99837.25;;;11.41;100.00
55675;BME280;41562;44.330;23.802;2023-04-21T06:08:31;99841.78;;;11.88;100.00
55675;BME280;41562;44.330;23.802;2023-04-21T06:10:59;99841.41;;;11.95;100.00
55675;BME280;41562;44.330;23.802;2023-04-21T06:13:26;99838.94;;;11.80;100.00
55675;BME280;41562;44.330;23.802;2023-04-21T06:15:54;99839.56;;;12.28;100.00
55675;BME280;41562;44.330;23.802;2023-04-21T06:18:21;99835.44;;;12.35;99.01
55675;BME280;41562;44.330;23.802;2023-04-21T06:20:53;99838.56;;;12.24;99.98
55675;BME280;41562;44.330;23.802;2023-04-21T06:23:21;99840.84;;;12.49;100.00
55675;BME280;41562;44.330;23.802;2023-04-21T06:26:02;99839.13;;;12.39;100.00
55675;BME280;41562;44.330;23.802;2023-04-21T06:28:30;99836.34;;;12.63;98.71
55675;BME280;41562;44.330;23.802;2023-04-21T06:30:59;99845.19;;;12.64;98.37
55675;BME280;41562;44.330;23.802;2023-04-21T06:33:27;99837.53;;;13.31;95.30
55675;BME280;41562;44.330;23.802;2023-04-21T06:35:54;99850.16;;;13.44;94.03
55675;BME280;41562;44.330;23.802;2023-04-21T06:38:22;99842.81;;;13.49;94.45
55675;BME280;41562;44.330;23.802;2023-04-21T06:40:49;99851.47;;;14.09;90.15
55675;BME280;41562;44.330;23.802;2023-04-21T06:43:19;99838.41;;;13.67;93.02
55675;BME280;41562;44.330;23.802;2023-04-21T06:45:46;99833.66;;;13.64;91.18
55675;BME280;41562;44.330;23.802;2023-04-21T06:48:14;99842.38;;;13.69;91.53
55675;BME280;41562;44.330;23.802;2023-04-21T06:50:41;99837.25;;;13.95;89.84
55675;BME280;41562;44.330;23.802;2023-04-21T06:53:09;99842.50;;;13.64;90.90
55675;BME280;41562;44.330;23.802;2023-04-21T06:55:37;99844.91;;;14.02;89.50
55675;BME280;41562;44.330;23.802;2023-04-21T06:58:04;99842.75;;;14.48;87.42
55675;BME280;41562;44.330;23.802;2023-04-21T07:00:32;99843.91;;;14.34;88.36
55675;BME280;41562;44.330;23.802;2023-04-21T07:02:59;99861.59;;;14.13;89.87
55675;BME280;41562;44.330;23.802;2023-04-21T07:05:27;99855.59;;;13.80;90.09
55675;BME280;41562;44.330;23.802;2023-04-21T07:07:55;99859.22;;;14.11;89.75
55675;BME280;41562;44.330;23.802;2023-04-21T07:10:22;99855.06;;;15.25;85.20
55675;BME280;41562;44.330;23.802;2023-04-21T07:12:50;99857.19;;;15.45;82.42
55675;BME280;41562;44.330;23.802;2023-04-21T07:15:17;99856.75;;;15.52;82.93
55675;BME280;41562;44.330;23.802;2023-04-21T07:17:44;99862.09;;;16.00;82.26
55675;BME280;41562;44.330;23.802;2023-04-21T07:20:12;99864.50;;;16.27;78.30
55675;BME280;41562;44.330;23.802;2023-04-21T07:22:39;99858.13;;;15.80;79.31
55675;BME280;41562;44.330;23.802;2023-04-21T07:25:07;99857.16;;;15.85;77.39
55675;BME280;41562;44.330;23.802;2023-04-21T07:27:35;99860.69;;;16.20;72.19
55675;BME280;41562;44.330;23.802;2023-04-21T07:30:03;99859.81;;;15.59;74.56
55675;BME280;41562;44.330;23.802;2023-04-21T07:32:31;99854.81;;;16.61;73.05
55675;BME280;41562;44.330;23.802;2023-04-21T07:34:58;99859.00;;;17.43;66.69
55675;BME280;41562;44.330;23.802;2023-04-21T07:37:25;99853.78;;;17.38;62.78
55675;BME280;41562;44.330;23.802;2023-04-21T07:39:53;99863.44;;;17.09;65.53
55675;BME280;41562;44.330;23.802;2023-04-21T07:42:21;99865.59;;;16.26;64.38
55675;BME280;41562;44.330;23.802;2023-04-21T07:44:48;99870.16;;;15.83;66.54
55675;BME280;41562;44.330;23.802;2023-04-21T07:47:16;99871.13;;;15.78;67.49
55675;BME280;41562;44.330;23.802;2023-04-21T07:49:43;99869.72;;;16.06;68.23
55675;BME280;41562;44.330;23.802;2023-04-21T07:52:11;99864.59;;;16.91;67.09
55675;BME280;41562;44.330;23.802;2023-04-21T07:54:38;99874.44;;;16.96;66.88
55675;BME280;41562;44.330;23.802;2023-04-21T07:57:06;99874.72;;;17.11;64.66
55675;BME280;41562;44.330;23.802;2023-04-21T07:59:33;99863.03;;;17.95;62.98
55675;BME280;41562;44.330;23.802;2023-04-21T08:02:01;99869.38;;;18.20;61.40
55675;BME280;41562;44.330;23.802;2023-04-21T08:04:28;99864.91;;;17.74;60.45
55675;BME280;41562;44.330;23.802;2023-04-21T08:06:56;99867.22;;;18.46;62.15
55675;BME280;41562;44.330;23.802;2023-04-21T08:09:25;99869.13;;;18.13;60.37
55675;BME280;41562;44.330;23.802;2023-04-21T08:11:52;99870.84;;;17.67;62.43
55675;BME280;41562;44.330;23.802;2023-04-21T08:14:20;99875.47;;;17.20;63.29
55675;BME280;41562;44.330;23.802;2023-04-21T08:16:48;99872.59;;;17.25;63.48
55675;BME280;41562;44.330;23.802;2023-04-21T08:19:16;99877.50;;;16.85;63.21
55675;BME280;41562;44.330;23.802;2023-04-21T08:21:46;99883.06;;;16.46;63.96
55675;BME280;41562;44.330;23.802;2023-04-21T08:24:14;99874.97;;;16.72;65.26
55675;BME280;41562;44.330;23.802;2023-04-21T08:26:44;99876.56;;;16.38;65.13
55675;BME280;41562;44.330;23.802;2023-04-21T08:29:11;99880.53;;;16.49;66.38
55675;BME280;41562;44.330;23.802;2023-04-21T08:31:39;99866.25;;;16.23;66.39
55675;BME280;41562;44.330;23.802;2023-04-21T08:34:06;99867.97;;;16.19;67.57
55675;BME280;41562;44.330;23.802;2023-04-21T08:36:33;99865.09;;;16.93;66.45
55675;BME280;41562;44.330;23.802;2023-04-21T08:39:01;99861.09;;;16.91;73.63
55675;BME280;41562;44.330;23.802;2023-04-21T08:41:29;99864.13;;;16.89;65.62
55675;BME280;41562;44.330;23.802;2023-04-21T08:43:57;99861.28;;;16.77;65.72
55675;BME280;41562;44.330;23.802;2023-04-21T08:46:26;99864.28;;;16.93;65.70
55675;BME280;41562;44.330;23.802;2023-04-21T08:48:55;99867.97;;;16.71;64.14
55675;BME280;41562;44.330;23.802;2023-04-21T08:51:26;99864.38;;;17.13;66.32
55675;BME280;41562;44.330;23.802;2023-04-21T08:53:54;99861.63;;;17.22;65.07
55675;BME280;41562;44.330;23.802;2023-04-21T08:56:24;99863.44;;;17.47;64.77
55675;BME280;41562;44.330;23.802;2023-04-21T08:58:52;99859.53;;;17.65;63.95
55675;BME280;41562;44.330;23.802;2023-04-21T09:01:20;99871.81;;;17.92;64.02
55675;BME280;41562;44.330;23.802;2023-04-21T09:03:47;99869.44;;;18.98;63.08
55675;BME280;41562;44.330;23.802;2023-04-21T09:06:15;99869.69;;;20.15;57.71
55675;BME280;41562;44.330;23.802;2023-04-21T09:08:52;99862.94;;;20.49;56.74
55675;BME280;41562;44.330;23.802;2023-04-21T09:11:20;99863.56;;;20.58;54.95
55675;BME280;41562;44.330;23.802;2023-04-21T09:13:48;99859.44;;;19.96;52.29
55675;BME280;41562;44.330;23.802;2023-04-21T09:16:20;99847.88;;;18.90;56.59
55675;BME280;41562;44.330;23.802;2023-04-21T09:18:49;99853.09;;;18.95;54.30
55675;BME280;41562;44.330;23.802;2023-04-21T09:21:18;99844.66;;;19.33;53.77
55675;BME280;41562;44.330;23.802;2023-04-21T09:23:46;99852.41;;;19.10;51.24
55675;BME280;41562;44.330;23.802;2023-04-21T09:26:17;99845.25;;;19.50;52.47
55675;BME280;41562;44.330;23.802;2023-04-21T09:28:45;99845.69;;;19.64;52.88
55675;BME280;41562;44.330;23.802;2023-04-21T09:31:15;99848.41;;;19.77;51.48
55675;BME280;41562;44.330;23.802;2023-04-21T09:33:51;99844.66;;;19.81;51.41
55675;BME280;41562;44.330;23.802;2023-04-21T09:36:28;99847.84;;;19.71;51.24
55675;BME280;41562;44.330;23.802;2023-04-21T09:38:59;99845.22;;;19.75;53.23
55675;BME280;41562;44.330;23.802;2023-04-21T09:41:46;99837.31;;;19.33;53.43
55675;BME280;41562;44.330;23.802;2023-04-21T09:44:14;99833.47;;;19.71;54.99
55675;BME280;41562;44.330;23.802;2023-04-21T09:46:43;99836.66;;;19.48;56.04
55675;BME280;41562;44.330;23.802;2023-04-21T09:49:17;99847.59;;;20.56;54.18
55675;BME280;41562;44.330;23.802;2023-04-21T09:51:49;99839.69;;;20.23;50.93
55675;BME280;41562;44.330;23.802;2023-04-21T09:54:41;99839.53;;;20.32;50.46
55675;BME280;41562;44.330;23.802;2023-04-21T09:57:12;99830.78;;;19.58;51.31
55675;BME280;41562;44.330;23.802;2023-04-21T09:59:44;99833.94;;;19.73;51.95
55675;BME280;41562;44.330;23.802;2023-04-21T10:02:12;99831.59;;;19.99;50.35
55675;BME280;41562;44.330;23.802;2023-04-21T10:04:40;99830.78;;;19.58;51.01
55675;BME280;41562;44.330;23.802;2023-04-21T10:07:08;99828.88;;;19.59;52.88
55675;BME280;41562;44.330;23.802;2023-04-21T10:09:42;99828.22;;;20.02;52.21
55675;BME280;41562;44.330;23.802;2023-04-21T10:12:12;99828.31;;;20.45;48.17
55675;BME280;41562;44.330;23.802;2023-04-21T10:14:40;99823.41;;;20.51;49.60
55675;BME280;41562;44.330;23.802;2023-04-21T10:17:09;99816.78;;;20.64;50.05
55675;BME280;41562;44.330;23.802;2023-04-21T10:19:47;99812.25;;;20.84;50.96
55675;BME280;41562;44.330;23.802;2023-04-21T10:22:25;99815.13;;;20.60;47.59
55675;BME280;41562;44.330;23.802;2023-04-21T10:24:58;99813.53;;;20.59;50.84
55675;BME280;41562;44.330;23.802;2023-04-21T10:27:41;99817.22;;;20.66;46.96
55675;BME280;41562;44.330;23.802;2023-04-21T10:30:23;99813.91;;;20.88;48.62
55675;BME280;41562;44.330;23.802;2023-04-21T10:33:04;99813.84;;;20.41;49.49
55675;BME280;41562;44.330;23.802;2023-04-21T10:38:41;99808.16;;;19.42;51.89
55675;BME280;41562;44.330;23.802;2023-04-21T10:41:29;99796.84;;;19.16;53.82
55675;BME280;41562;44.330;23.802;2023-04-21T10:43:58;99799.53;;;18.79;53.16
55675;BME280;41562;44.330;23.802;2023-04-21T10:46:48;99803.28;;;18.54;54.00
55675;BME280;41562;44.330;23.802;2023-04-21T10:57:32;99803.50;;;18.49;56.15
55675;BME280;41562;44.330;23.802;2023-04-21T11:00:01;99804.84;;;18.43;55.00
55675;BME280;41562;44.330;23.802;2023-04-21T11:02:32;99810.09;;;18.60;53.57
55675;BME280;41562;44.330;23.802;2023-04-21T11:05:05;99799.97;;;18.36;55.56
55675;BME280;41562;44.330;23.802;2023-04-21T11:07:33;99806.59;;;18.27;55.83
55675;BME280;41562;44.330;23.802;2023-04-21T11:10:06;99801.22;;;18.39;54.06
55675;BME280;41562;44.330;23.802;2023-04-21T11:12:36;99800.94;;;18.20;54.24
55675;BME280;41562;44.330;23.802;2023-04-21T11:15:05;99798.59;;;18.09;54.00
55675;BME280;41562;44.330;23.802;2023-04-21T11:17:34;99797.03;;;18.08;53.87
55675;BME280;41562;44.330;23.802;2023-04-21T11:20:03;99795.56;;;17.90;54.18
55675;BME280;41562;44.330;23.802;2023-04-21T11:22:30;99801.06;;;18.02;55.23
55675;BME280;41562;44.330;23.802;2023-04-21T11:24:58;99800.59;;;18.00;57.47
55675;BME280;41562;44.330;23.802;2023-04-21T11:27:27;99800.69;;;18.45;52.88
55675;BME280;41562;44.330;23.802;2023-04-21T11:29:55;99798.06;;;18.37;52.97
55675;BME280;41562;44.330;23.802;2023-04-21T11:32:23;99796.88;;;18.26;52.81
55675;BME280;41562;44.330;23.802;2023-04-21T11:34:50;99800.13;;;18.19;53.16
55675;BME280;41562;44.330;23.802;2023-04-21T11:37:25;99795.50;;;18.20;54.82
55675;BME280;41562;44.330;23.802;2023-04-21T11:39:59;99792.81;;;17.78;53.27
55675;BME280;41562;44.330;23.802;2023-04-21T11:42:27;99786.66;;;17.90;53.51
55675;BME280;41562;44.330;23.802;2023-04-21T11:44:55;99790.91;;;17.99;53.78
55675;BME280;41562;44.330;23.802;2023-04-21T11:47:25;99795.94;;;18.22;52.85
55675;BME280;41562;44.330;23.802;2023-04-21T11:49:54;99794.13;;;18.14;55.14
55675;BME280;41562;44.330;23.802;2023-04-21T11:52:30;99793.00;;;18.15;56.75
55675;BME280;41562;44.330;23.802;2023-04-21T11:55:05;99794.56;;;18.16;54.90
55675;BME280;41562;44.330;23.802;2023-04-21T11:57:33;99794.31;;;18.08;52.94
55675;BME280;41562;44.330;23.802;2023-04-21T12:00:02;99788.25;;;18.12;53.89
55675;BME280;41562;44.330;23.802;2023-04-21T12:02:31;99794.72;;;18.19;54.40
55675;BME280;41562;44.330;23.802;2023-04-21T12:05:10;99788.66;;;18.34;54.74
55675;BME280;41562;44.330;23.802;2023-04-21T12:07:43;99779.69;;;18.75;54.85
55675;BME280;41562;44.330;23.802;2023-04-21T12:10:13;99785.22;;;18.91;55.66
55675;BME280;41562;44.330;23.802;2023-04-21T12:12:41;99782.50;;;19.03;53.05
55675;BME280;41562;44.330;23.802;2023-04-21T12:15:10;99781.69;;;18.78;53.71
55675;BME280;41562;44.330;23.802;2023-04-21T12:17:48;99784.75;;;18.77;54.61
55675;BME280;41562;44.330;23.802;2023-04-21T12:20:18;99788.28;;;18.90;53.99
55675;BME280;41562;44.330;23.802;2023-04-21T12:22:46;99776.75;;;18.93;55.15
55675;BME280;41562;44.330;23.802;2023-04-21T12:25:14;99783.59;;;18.66;55.86
55675;BME280;41562;44.330;23.802;2023-04-21T12:27:52;99776.22;;;18.54;55.33
55675;BME280;41562;44.330;23.802;2023-04-21T12:30:20;99783.66;;;18.45;55.56
55675;BME280;41562;44.330;23.802;2023-04-21T12:32:48;99780.22;;;18.36;56.58
55675;BME280;41562;44.330;23.802;2023-04-21T12:35:15;99781.03;;;18.16;56.89
55675;BME280;41562;44.330;23.802;2023-04-21T12:37:45;99783.34;;;18.26;57.34
55675;BME280;41562;44.330;23.802;2023-04-21T12:40:13;99776.81;;;18.27;57.31
55675;BME280;41562;44.330;23.802;2023-04-21T12:42:40;99790.31;;;18.15;57.38
55675;BME280;41562;44.330;23.802;2023-04-21T12:45:08;99788.72;;;18.14;57.34
55675;BME280;41562;44.330;23.802;2023-04-21T12:47:36;99782.88;;;18.24;57.38
55675;BME280;41562;44.330;23.802;2023-04-21T12:50:04;99787.66;;;18.27;58.91
55675;BME280;41562;44.330;23.802;2023-04-21T12:52:31;99789.09;;;18.03;61.46
55675;BME280;41562;44.330;23.802;2023-04-21T12:54:59;99782.97;;;18.15;62.39
55675;BME280;41562;44.330;23.802;2023-04-21T12:57:26;99783.84;;;18.07;63.10
55675;BME280;41562;44.330;23.802;2023-04-21T12:59:54;99774.56;;;17.75;61.65
55675;BME280;41562;44.330;23.802;2023-04-21T13:02:21;99780.50;;;17.89;63.18
55675;BME280;41562;44.330;23.802;2023-04-21T13:04:59;99763.31;;;17.85;63.34
55675;BME280;41562;44.330;23.802;2023-04-21T13:07:32;99768.16;;;18.00;62.54